Time;durP1;ratioP1;P1;durP2;ratioP2;P2;SDS_P1;SDS_P2;PMS_P1;PMS_P2;Temp;Humidity;BMP_temperature;BMP_pressure;BME280_temperature;BME280_humidity;BME280_pressure;Samples;Min_cycle;Max_cycle;Signal;HPM_P1;HPM_P2
2022/08/21 00:00:24;;;;;;;840.25;793.95;;;;;;;;;;5004808;28;20494;-81
2022/08/21 00:02:54;;;;;;;887.85;836.40;;;;;;;;;;5005443;28;20034;-82
2022/08/21 00:05:21;;;;;;;916.05;861.97;;;;;;;;;;5004231;28;20069;-81
2022/08/21 00:07:47;;;;;;;916.92;860.88;;;;;;;;;;5005742;28;20113;-82
2022/08/21 00:10:14;;;;;;;935.33;877.58;;;;;;;;;;5003945;28;20029;-83
2022/08/21 00:12:40;;;;;;;925.78;868.20;;;;;;;;;;5003144;28;20026;-82
2022/08/21 00:15:07;;;;;;;959.15;896.95;;;;;;;;;;5008144;28;20041;-82
2022/08/21 00:17:33;;;;;;;933.03;873.35;;;;;;;;;;5008463;28;20033;-82
2022/08/21 00:19:59;;;;;;;966.45;904.10;;;;;;;;;;5007385;28;20080;-81
2022/08/21 00:22:25;;;;;;;1002.42;935.92;;;;;;;;;;5006959;28;20034;-83
2022/08/21 00:24:51;;;;;;;978.97;915.85;;;;;;;;;;5006829;28;20031;-82
2022/08/21 00:27:17;;;;;;;973.75;905.97;;;;;;;;;;5005208;28;20035;-81
2022/08/21 00:29:44;;;;;;;986.55;920.85;;;;;;;;;;5007748;28;20129;-84
2022/08/21 00:32:10;;;;;;;999.30;933.55;;;;;;;;;;5006380;28;20038;-80
2022/08/21 00:34:36;;;;;;;978.70;913.80;;;;;;;;;;5005989;28;20068;-83
2022/08/21 00:37:02;;;;;;;980.88;916.47;;;;;;;;;;5000327;28;20037;-81
2022/08/21 00:39:28;;;;;;;985.33;912.10;;;;;;;;;;4987872;28;20029;-81
2022/08/21 00:41:54;;;;;;;1010.00;940.30;;;;;;;;;;4997496;28;20113;-81
2022/08/21 00:44:20;;;;;;;979.63;915.15;;;;;;;;;;5006198;28;20044;-83
2022/08/21 00:46:46;;;;;;;1011.10;940.00;;;;;;;;;;5005996;28;20038;-82
2022/08/21 00:49:13;;;;;;;1014.70;943.42;;;;;;;;;;5005828;28;20030;-83
2022/08/21 00:51:50;;;;;;;1025.25;953.10;;;;;;;;;;5005583;28;20022;-83
2022/08/21 00:54:17;;;;;;;1057.00;979.75;;;;;;;;;;5005233;28;20038;-81
2022/08/21 00:56:43;;;;;;;1002.28;928.17;;;;;;;;;;5005660;28;20065;-82
2022/08/21 00:59:10;;;;;;;1042.13;966.70;;;;;;;;;;5006974;28;20022;-82
2022/08/21 01:01:36;;;;;;;1011.47;941.20;;;;;;;;;;5005678;28;20034;-82
2022/08/21 01:04:03;;;;;;;1017.70;943.47;;;;;;;;;;4992641;28;20038;-82
2022/08/21 01:06:29;;;;;;;1047.13;965.38;;;;;;;;;;5004604;28;20054;-82
2022/08/21 01:08:55;;;;;;;1036.78;958.65;;;;;;;;;;4998186;28;20035;-81
2022/08/21 01:11:21;;;;;;;996.95;912.40;;;;;;;;;;4998610;28;20026;-81
2022/08/21 01:13:48;;;;;;;1068.07;987.97;;;;;;;;;;5001628;28;20113;-83
2022/08/21 01:16:15;;;;;;;1010.13;935.72;;;;;;;;;;4986027;28;20033;-83
2022/08/21 01:18:41;;;;;;;1036.80;951.03;;;;;;;;;;4995667;28;20022;-82
2022/08/21 01:21:07;;;;;;;1041.63;952.97;;;;;;;;;;5006902;28;20094;-82
2022/08/21 01:23:35;;;;;;;1061.55;978.53;;;;;;;;;;5005764;28;20034;-81
2022/08/21 01:26:01;;;;;;;1090.38;999.28;;;;;;;;;;5005893;28;20022;-82
2022/08/21 01:28:30;;;;;;;1086.68;999.53;;;;;;;;;;5008696;28;20034;-80
2022/08/21 01:30:56;;;;;;;1084.07;994.40;;;;;;;;;;5005826;28;20125;-83
2022/08/21 01:33:23;;;;;;;1105.85;999.90;;;;;;;;;;5006939;28;20030;-81
2022/08/21 01:35:49;;;;;;;1063.80;980.25;;;;;;;;;;5004996;28;20600;-82
2022/08/21 01:38:15;;;;;;;1063.13;978.95;;;;;;;;;;5003849;28;20027;-82
2022/08/21 01:40:41;;;;;;;1000.83;912.83;;;;;;;;;;5004668;28;20173;-81
2022/08/21 01:43:08;;;;;;;1026.25;952.83;;;;;;;;;;5005288;28;20022;-82
2022/08/21 01:45:34;;;;;;;1024.75;948.17;;;;;;;;;;5002216;28;20026;-82
2022/08/21 01:48:00;;;;;;;1052.43;971.60;;;;;;;;;;5005136;28;20034;-80
2022/08/21 01:50:26;;;;;;;1044.93;964.28;;;;;;;;;;5003941;28;20486;-82
2022/08/21 01:52:52;;;;;;;1049.78;956.67;;;;;;;;;;5004708;28;20387;-82
2022/08/21 01:55:19;;;;;;;985.20;912.65;;;;;;;;;;5004048;28;20042;-82
2022/08/21 01:57:46;;;;;;;1017.72;947.75;;;;;;;;;;5006340;28;20026;-82
2022/08/21 02:00:13;;;;;;;999.85;929.35;;;;;;;;;;5002239;28;20061;-82
2022/08/21 02:02:40;;;;;;;1045.75;971.78;;;;;;;;;;5005399;28;20034;-83
2022/08/21 02:05:07;;;;;;;1028.88;950.67;;;;;;;;;;5007093;28;20018;-83
2022/08/21 02:07:38;;;;;;;995.60;926.75;;;;;;;;;;5006339;28;20065;-82
2022/08/21 02:10:05;;;;;;;1015.42;940.42;;;;;;;;;;5001641;28;20037;-82
2022/08/21 02:12:36;;;;;;;1045.60;971.13;;;;;;;;;;5001360;28;20030;-82
2022/08/21 02:15:03;;;;;;;1034.00;954.65;;;;;;;;;;5006958;28;20030;-82
2022/08/21 02:17:37;;;;;;;1048.68;967.30;;;;;;;;;;5007478;28;20026;-83
2022/08/21 02:20:03;;;;;;;988.45;919.47;;;;;;;;;;5005842;28;20026;-84
2022/08/21 02:22:29;;;;;;;1009.17;938.13;;;;;;;;;;5007514;28;20031;-83
2022/08/21 02:24:55;;;;;;;1033.03;957.65;;;;;;;;;;5007086;28;20041;-82
2022/08/21 02:27:22;;;;;;;998.45;929.05;;;;;;;;;;5008657;28;20105;-82
2022/08/21 02:29:48;;;;;;;997.72;921.40;;;;;;;;;;5011698;28;20057;-82
2022/08/21 02:32:14;;;;;;;1018.78;948.83;;;;;;;;;;5000187;28;20038;-80
2022/08/21 02:34:40;;;;;;;888.35;828.38;;;;;;;;;;5004317;28;20022;-81
2022/08/21 02:37:06;;;;;;;1047.63;966.28;;;;;;;;;;5005918;28;20095;-83
2022/08/21 02:39:32;;;;;;;1025.20;948.20;;;;;;;;;;5008021;28;20085;-82
2022/08/21 02:41:58;;;;;;;1087.20;998.70;;;;;;;;;;5006866;28;20059;-83
2022/08/21 02:44:25;;;;;;;1037.82;959.28;;;;;;;;;;5006016;28;20058;-82
2022/08/21 02:46:51;;;;;;;1043.72;963.30;;;;;;;;;;5005087;28;20116;-82
2022/08/21 02:49:17;;;;;;;1080.03;995.67;;;;;;;;;;5007842;28;20030;-82
2022/08/21 02:51:43;;;;;;;1091.95;999.90;;;;;;;;;;5007083;28;20044;-83
2022/08/21 02:54:09;;;;;;;1087.15;996.40;;;;;;;;;;5004125;28;20026;-82
2022/08/21 02:56:36;;;;;;;1081.20;994.72;;;;;;;;;;5006832;28;20452;-83
2022/08/21 02:59:02;;;;;;;1111.95;999.90;;;;;;;;;;5009706;28;20030;-82
2022/08/21 03:01:28;;;;;;;1090.32;997.00;;;;;;;;;;5007345;28;20037;-82
2022/08/21 03:03:54;;;;;;;1101.35;999.90;;;;;;;;;;5002227;28;20031;-82
2022/08/21 03:06:21;;;;;;;1072.20;980.78;;;;;;;;;;5004717;28;20022;-83
2022/08/21 03:08:47;;;;;;;1118.20;999.90;;;;;;;;;;5006068;28;20085;-84
2022/08/21 03:11:13;;;;;;;1138.30;999.90;;;;;;;;;;5007515;28;20027;-83
2022/08/21 03:13:40;;;;;;;1123.22;999.90;;;;;;;;;;5007249;28;20049;-82
2022/08/21 03:16:06;;;;;;;1100.30;998.83;;;;;;;;;;5007292;28;20046;-82
2022/08/21 03:18:32;;;;;;;1153.97;999.90;;;;;;;;;;5006978;28;20049;-83
2022/08/21 03:20:58;;;;;;;1112.18;999.90;;;;;;;;;;5008566;28;20031;-82
2022/08/21 03:23:24;;;;;;;1135.25;999.90;;;;;;;;;;5007093;28;20033;-82
2022/08/21 03:25:50;;;;;;;1142.25;999.90;;;;;;;;;;5008219;28;20034;-81
2022/08/21 03:28:18;;;;;;;1137.57;999.90;;;;;;;;;;5008098;28;20033;-81
2022/08/21 03:30:46;;;;;;;1146.90;999.90;;;;;;;;;;5003962;28;20087;-82
2022/08/21 03:33:12;;;;;;;1147.88;999.90;;;;;;;;;;5001448;28;20494;-82
2022/08/21 03:35:38;;;;;;;1140.80;999.90;;;;;;;;;;5009187;28;20030;-82
2022/08/21 03:38:04;;;;;;;1176.85;999.90;;;;;;;;;;5006276;28;20022;-82
2022/08/21 03:40:33;;;;;;;1161.45;999.90;;;;;;;;;;5006325;28;20026;-82
2022/08/21 03:42:59;;;;;;;1157.70;999.90;;;;;;;;;;5007216;28;20006;-83
2022/08/21 03:45:26;;;;;;;1141.70;999.90;;;;;;;;;;5009010;28;20414;-83
2022/08/21 03:47:52;;;;;;;1186.35;999.90;;;;;;;;;;5007998;28;20034;-83
2022/08/21 03:50:18;;;;;;;1174.03;999.90;;;;;;;;;;5006660;28;20022;-83
2022/08/21 03:52:44;;;;;;;1156.18;999.90;;;;;;;;;;5008396;28;20045;-84
2022/08/21 03:55:11;;;;;;;1174.65;999.90;;;;;;;;;;5008359;28;20031;-84
2022/08/21 03:57:37;;;;;;;1206.43;999.90;;;;;;;;;;5007611;28;20109;-83
2022/08/21 04:00:04;;;;;;;1197.10;999.90;;;;;;;;;;5005757;28;20055;-83
2022/08/21 04:02:30;;;;;;;1200.00;999.90;;;;;;;;;;5007136;28;20007;-83
2022/08/21 04:04:56;;;;;;;1204.35;999.90;;;;;;;;;;5007861;28;20030;-82
2022/08/21 04:07:22;;;;;;;1226.47;999.90;;;;;;;;;;5009194;28;20049;-82
2022/08/21 04:09:48;;;;;;;1162.38;999.90;;;;;;;;;;5007601;28;20030;-82
2022/08/21 04:12:14;;;;;;;1322.63;999.90;;;;;;;;;;5007157;28;20402;-82
2022/08/21 04:14:41;;;;;;;1232.43;999.90;;;;;;;;;;5005854;28;20026;-82
2022/08/21 04:17:07;;;;;;;1217.82;999.90;;;;;;;;;;5006243;28;20053;-82
2022/08/21 04:19:33;;;;;;;1199.53;999.90;;;;;;;;;;5007853;28;20077;-82
2022/08/21 04:21:59;;;;;;;1241.40;999.90;;;;;;;;;;5008701;28;20030;-82
2022/08/21 04:24:25;;;;;;;1231.35;999.90;;;;;;;;;;5006281;28;20049;-82
2022/08/21 04:26:52;;;;;;;1214.22;999.90;;;;;;;;;;5006484;28;20026;-82
2022/08/21 04:29:18;;;;;;;1293.45;999.90;;;;;;;;;;5005029;28;20051;-83
2022/08/21 04:31:45;;;;;;;1280.22;999.90;;;;;;;;;;5000789;28;20033;-82
2022/08/21 04:34:11;;;;;;;1317.88;999.90;;;;;;;;;;5006621;28;20057;-83
2022/08/21 04:36:37;;;;;;;1292.85;999.90;;;;;;;;;;5005671;28;20027;-83
2022/08/21 04:39:03;;;;;;;1210.05;999.90;;;;;;;;;;5006103;28;20057;-82
2022/08/21 04:41:29;;;;;;;1134.93;999.90;;;;;;;;;;5008388;28;20077;-83
2022/08/21 04:43:55;;;;;;;1183.90;999.90;;;;;;;;;;5006284;28;20078;-82
2022/08/21 04:46:22;;;;;;;1126.30;999.90;;;;;;;;;;5007049;28;20041;-82
2022/08/21 04:48:48;;;;;;;1142.43;999.90;;;;;;;;;;4997282;28;20817;-83
2022/08/21 04:51:24;;;;;;;1135.05;999.90;;;;;;;;;;5007157;28;20034;-83
2022/08/21 04:53:55;;;;;;;1137.28;999.90;;;;;;;;;;5006564;28;20030;-83
2022/08/21 04:56:27;;;;;;;1138.25;999.90;;;;;;;;;;5007986;28;20030;-83
2022/08/21 04:58:55;;;;;;;1049.78;944.30;;;;;;;;;;5006267;28;20019;-82
2022/08/21 05:01:23;;;;;;;1283.47;999.90;;;;;;;;;;4991620;28;20050;-82
2022/08/21 05:03:51;;;;;;;1101.30;986.20;;;;;;;;;;5000191;28;20399;-82
2022/08/21 05:06:17;;;;;;;1152.95;999.90;;;;;;;;;;4999837;28;20034;-81
2022/08/21 05:08:45;;;;;;;1230.93;984.00;;;;;;;;;;5004193;28;20030;-82
2022/08/21 05:11:11;;;;;;;1008.05;908.28;;;;;;;;;;5005026;28;20037;-80
2022/08/21 05:13:37;;;;;;;1023.13;926.95;;;;;;;;;;5007414;28;20110;-81
2022/08/21 05:16:03;;;;;;;1020.63;921.92;;;;;;;;;;5003666;28;20114;-83
2022/08/21 05:18:29;;;;;;;1091.28;994.78;;;;;;;;;;5004132;28;20027;-81
2022/08/21 05:20:56;;;;;;;1062.85;975.42;;;;;;;;;;5003913;28;20027;-82
2022/08/21 05:23:22;;;;;;;1301.63;986.75;;;;;;;;;;5007935;28;20023;-81
2022/08/21 05:25:48;;;;;;;1410.53;999.90;;;;;;;;;;5008779;28;20369;-83
2022/08/21 05:28:14;;;;;;;1252.93;982.78;;;;;;;;;;5007376;28;20038;-82
2022/08/21 05:30:40;;;;;;;1329.28;999.90;;;;;;;;;;5003972;28;20076;-83
2022/08/21 05:33:06;;;;;;;1325.25;994.90;;;;;;;;;;5009024;28;20114;-83
2022/08/21 05:35:33;;;;;;;1400.25;984.50;;;;;;;;;;5008629;28;20141;-82
2022/08/21 05:37:59;;;;;;;1391.63;981.30;;;;;;;;;;5007375;28;20026;-82
2022/08/21 05:40:27;;;;;;;1245.20;929.45;;;;;;;;;;5007905;28;20590;-82
2022/08/21 05:42:54;;;;;;;1437.60;999.90;;;;;;;;;;5008444;28;20022;-82
2022/08/21 05:45:21;;;;;;;1409.40;999.90;;;;;;;;;;5001079;28;20031;-82
2022/08/21 05:47:47;;;;;;;1038.53;924.45;;;;;;;;;;5009443;28;20026;-82
2022/08/21 05:50:13;;;;;;;1140.50;882.60;;;;;;;;;;5008750;28;20015;-82
2022/08/21 05:52:39;;;;;;;1415.15;999.38;;;;;;;;;;5009881;28;20049;-83
2022/08/21 05:55:05;;;;;;;1338.43;996.75;;;;;;;;;;5009926;28;20034;-83
2022/08/21 05:57:31;;;;;;;1568.40;999.90;;;;;;;;;;5011231;28;20034;-80
2022/08/21 05:59:59;;;;;;;1311.80;991.72;;;;;;;;;;5010850;28;20042;-82
2022/08/21 06:02:25;;;;;;;1452.53;999.55;;;;;;;;;;5001789;28;20094;-82
2022/08/21 06:04:51;;;;;;;1368.68;999.90;;;;;;;;;;4985094;28;20015;-81
2022/08/21 06:07:17;;;;;;;1327.57;999.90;;;;;;;;;;4996585;28;20026;-82
2022/08/21 06:09:43;;;;;;;1387.43;999.38;;;;;;;;;;5000703;28;20027;-82
2022/08/21 06:12:11;;;;;;;1411.40;999.90;;;;;;;;;;5006980;28;20023;-82
2022/08/21 06:14:38;;;;;;;1269.60;950.50;;;;;;;;;;4991641;28;20035;-82
2022/08/21 06:17:05;;;;;;;1445.55;995.53;;;;;;;;;;5005726;28;20054;-82
2022/08/21 06:19:31;;;;;;;1424.43;960.08;;;;;;;;;;5004352;28;20026;-81
2022/08/21 06:21:58;;;;;;;1657.60;999.90;;;;;;;;;;5004212;28;20034;-82
2022/08/21 06:24:24;;;;;;;1332.40;985.40;;;;;;;;;;5006432;28;20049;-82
2022/08/21 06:26:50;;;;;;;1393.57;999.90;;;;;;;;;;5006943;28;20277;-80
2022/08/21 06:29:17;;;;;;;1552.88;954.95;;;;;;;;;;5002837;28;20097;-82
2022/08/21 06:31:43;;;;;;;1182.57;993.65;;;;;;;;;;5005072;28;20506;-82
2022/08/21 06:34:10;;;;;;;1354.20;994.92;;;;;;;;;;5010190;28;20085;-83
2022/08/21 06:36:36;;;;;;;1367.68;977.25;;;;;;;;;;5011995;28;20309;-82
2022/08/21 06:39:03;;;;;;;1558.88;999.90;;;;;;;;;;5007086;28;20065;-80
2022/08/21 06:41:29;;;;;;;1288.40;950.70;;;;;;;;;;5007682;28;20030;-82
2022/08/21 06:43:55;;;;;;;1342.65;979.67;;;;;;;;;;4997891;28;20026;-81
2022/08/21 06:46:22;;;;;;;1234.43;931.65;;;;;;;;;;4989247;28;20026;-83
2022/08/21 06:48:48;;;;;;;1406.90;999.90;;;;;;;;;;5005138;28;20052;-81
2022/08/21 06:51:15;;;;;;;1400.20;951.47;;;;;;;;;;5006865;28;20046;-82
2022/08/21 06:53:41;;;;;;;1428.35;989.83;;;;;;;;;;5000968;28;20026;-82
2022/08/21 06:56:07;;;;;;;1420.45;999.90;;;;;;;;;;5005291;28;20031;-83
2022/08/21 06:58:33;;;;;;;1465.22;999.90;;;;;;;;;;5009056;28;20021;-83
2022/08/21 07:01:00;;;;;;;1391.18;992.22;;;;;;;;;;5005898;28;20037;-83
2022/08/21 07:03:28;;;;;;;1444.68;999.90;;;;;;;;;;5004013;28;20030;-82
2022/08/21 07:05:56;;;;;;;1496.22;999.45;;;;;;;;;;5004775;28;20006;-85
2022/08/21 07:08:22;;;;;;;1595.68;999.90;;;;;;;;;;4999409;28;20023;-82
2022/08/21 07:10:49;;;;;;;1364.75;964.50;;;;;;;;;;5003450;28;20022;-83
2022/08/21 07:13:16;;;;;;;1396.25;970.05;;;;;;;;;;4988581;28;20018;-84
2022/08/21 07:15:42;;;;;;;1487.03;999.90;;;;;;;;;;4998948;28;20018;-81
2022/08/21 07:18:08;;;;;;;1312.05;997.55;;;;;;;;;;4999180;28;20026;-82
2022/08/21 07:20:34;;;;;;;1458.60;999.90;;;;;;;;;;4997999;28;20494;-81
2022/08/21 07:23:02;;;;;;;1322.07;998.92;;;;;;;;;;4999294;28;20082;-81
2022/08/21 07:25:28;;;;;;;1640.22;999.90;;;;;;;;;;4996926;28;20509;-82
2022/08/21 07:27:55;;;;;;;1368.07;971.95;;;;;;;;;;4997776;28;20130;-83
2022/08/21 07:30:21;;;;;;;1415.15;983.35;;;;;;;;;;4998196;28;20042;-83
2022/08/21 07:32:49;;;;;;;1245.20;970.33;;;;;;;;;;4995417;28;20045;-81
2022/08/21 07:35:15;;;;;;;1328.05;963.65;;;;;;;;;;5001152;28;20026;-82
2022/08/21 07:37:42;;;;;;;1544.25;999.90;;;;;;;;;;5010941;28;20026;-83
2022/08/21 07:40:08;;;;;;;1423.28;987.95;;;;;;;;;;4998000;28;20491;-83
2022/08/21 07:42:34;;;;;;;1323.43;999.90;;;;;;;;;;4998675;28;20050;-83
2022/08/21 07:45:00;;;;;;;1211.43;977.75;;;;;;;;;;4997943;28;20026;-82
2022/08/21 07:47:26;;;;;;;1077.82;963.22;;;;;;;;;;4997955;28;20395;-83
2022/08/21 07:49:53;;;;;;;1283.22;999.90;;;;;;;;;;5004133;28;20030;-81
2022/08/21 07:52:19;;;;;;;1016.70;925.97;;;;;;;;;;4998341;28;20018;-82
2022/08/21 07:54:45;;;;;;;1065.55;961.03;;;;;;;;;;4982044;28;20019;-82
2022/08/21 07:57:11;;;;;;;1053.95;953.15;;;;;;;;;;4991465;28;20061;-82
2022/08/21 07:59:37;;;;;;;1008.05;914.88;;;;;;;;;;4998163;28;20025;-81
2022/08/21 08:02:03;;;;;;;1069.13;961.28;;;;;;;;;;4997080;28;20081;-81
2022/08/21 08:04:29;;;;;;;1019.85;928.20;;;;;;;;;;4997600;28;20030;-80
2022/08/21 08:06:55;;;;;;;1078.38;967.30;;;;;;;;;;4997476;28;20665;-82
2022/08/21 08:09:21;;;;;;;1062.93;957.47;;;;;;;;;;4996680;28;20075;-80
2022/08/21 08:11:47;;;;;;;1047.30;945.50;;;;;;;;;;5004106;28;20033;-81
2022/08/21 08:14:15;;;;;;;1053.35;951.05;;;;;;;;;;5007344;28;20025;-82
2022/08/21 08:16:41;;;;;;;1078.40;970.17;;;;;;;;;;4996177;28;20486;-81
2022/08/21 08:19:07;;;;;;;1120.95;955.72;;;;;;;;;;4996621;28;20046;-81
2022/08/21 08:21:34;;;;;;;1214.38;999.90;;;;;;;;;;5001947;28;20106;-81
2022/08/21 08:24:00;;;;;;;1075.05;959.97;;;;;;;;;;4998693;28;20049;-81
2022/08/21 08:26:27;;;;;;;1161.60;991.63;;;;;;;;;;4997370;28;20037;-80
2022/08/21 08:28:53;;;;;;;1098.63;979.60;;;;;;;;;;4998507;28;20038;-82
2022/08/21 08:31:19;;;;;;;1048.00;933.75;;;;;;;;;;4999795;28;20030;-81
2022/08/21 08:33:45;;;;;;;1077.55;957.42;;;;;;;;;;4998204;28;20026;-80
2022/08/21 08:36:15;;;;;;;1018.30;924.55;;;;;;;;;;4998172;28;20034;-81
2022/08/21 08:38:41;;;;;;;1035.20;927.92;;;;;;;;;;4979803;28;20029;-81
2022/08/21 08:41:17;;;;;;;1093.97;981.45;;;;;;;;;;4990196;28;20057;-80
2022/08/21 08:43:45;;;;;;;986.58;900.72;;;;;;;;;;4993572;28;20014;-82
2022/08/21 08:46:14;;;;;;;1027.30;932.63;;;;;;;;;;4997239;28;20037;-82
2022/08/21 08:48:44;;;;;;;1037.72;940.15;;;;;;;;;;4996365;28;20045;-80
2022/08/21 08:51:14;;;;;;;1121.32;974.22;;;;;;;;;;4996414;28;20054;-81
2022/08/21 08:53:48;;;;;;;1015.70;916.90;;;;;;;;;;4993524;28;20069;-81
2022/08/21 08:56:15;;;;;;;1056.28;944.13;;;;;;;;;;4995781;28;20062;-81
2022/08/21 08:58:43;;;;;;;1070.15;935.17;;;;;;;;;;4997533;28;20084;-81
2022/08/21 09:01:16;;;;;;;1096.45;973.05;;;;;;;;;;4996052;28;20572;-83
2022/08/21 09:03:42;;;;;;;1223.05;983.15;;;;;;;;;;4997403;28;20394;-82
2022/08/21 09:06:32;;;;;;;1106.32;995.90;;;;;;;;;;4997503;28;20027;-83
2022/08/21 09:09:05;;;;;;;1083.82;966.65;;;;;;;;;;4966730;28;20034;-83
2022/08/21 09:11:31;;;;;;;1197.25;985.95;;;;;;;;;;4997499;28;20026;-83
2022/08/21 09:14:16;;;;;;;1259.10;972.78;;;;;;;;;;4997438;28;20037;-83
2022/08/21 09:16:54;;;;;;;1212.60;895.08;;;;;;;;;;4996727;28;20508;-82
2022/08/21 09:19:30;;;;;;;880.72;743.10;;;;;;;;;;4986323;28;20034;-82
2022/08/21 09:22:04;;;;;;;1223.07;800.55;;;;;;;;;;4996398;28;20030;-81
2022/08/21 09:24:32;;;;;;;335.90;309.83;;;;;;;;;;4989792;28;20018;-83
2022/08/21 09:27:05;;;;;;;256.75;232.70;;;;;;;;;;4994393;28;20064;-82
2022/08/21 09:29:34;;;;;;;184.38;165.40;;;;;;;;;;4983651;28;20104;-82
2022/08/21 09:32:00;;;;;;;19.65;17.95;;;;;;;;;;4992211;28;20483;-83
2022/08/21 09:34:31;;;;;;;152.65;125.22;;;;;;;;;;4996457;28;20498;-82
2022/08/21 09:36:57;;;;;;;24.38;22.75;;;;;;;;;;4997442;28;20049;-80
2022/08/21 09:39:31;;;;;;;14.23;12.98;;;;;;;;;;4994367;28;20533;-82
2022/08/21 09:42:20;;;;;;;504.90;173.20;;;;;;;;;;4995613;28;20023;-82
2022/08/21 09:44:46;;;;;;;7.10;4.55;;;;;;;;;;4988235;28;20046;-80
2022/08/21 09:47:13;;;;;;;7.60;5.03;;;;;;;;;;4989405;28;20034;-82
2022/08/21 09:49:40;;;;;;;6.72;4.22;;;;;;;;;;4994939;28;20034;-81
2022/08/21 09:52:21;;;;;;;6.72;5.13;;;;;;;;;;4994835;28;20057;-81
2022/08/21 09:54:51;;;;;;;7.18;4.75;;;;;;;;;;4994315;28;20022;-80
2022/08/21 09:57:40;;;;;;;115.45;40.83;;;;;;;;;;4995569;28;20030;-81
2022/08/21 10:00:25;;;;;;;7.40;4.85;;;;;;;;;;4994351;28;20022;-81
2022/08/21 10:02:51;;;;;;;7.78;4.82;;;;;;;;;;4979093;28;20026;-81
2022/08/21 10:05:17;;;;;;;16.70;14.20;;;;;;;;;;4994855;28;20030;-81
2022/08/21 10:07:43;;;;;;;9.38;6.70;;;;;;;;;;4993110;28;20039;-79
2022/08/21 10:10:14;;;;;;;6.95;4.97;;;;;;;;;;4976308;28;20027;-81
2022/08/21 10:12:55;;;;;;;7.80;4.78;;;;;;;;;;4987672;28;20026;-83
2022/08/21 10:15:39;;;;;;;271.20;91.03;;;;;;;;;;5001256;28;20058;-82
2022/08/21 10:18:28;;;;;;;7.00;4.70;;;;;;;;;;5001053;28;20036;-80
2022/08/21 10:20:57;;;;;;;6.50;4.60;;;;;;;;;;5001594;28;20062;-83
2022/08/21 10:23:29;;;;;;;7.15;6.13;;;;;;;;;;5001143;28;20022;-82
2022/08/21 10:26:15;;;;;;;46.72;13.43;;;;;;;;;;5001292;28;20034;-83
2022/08/21 10:28:50;;;;;;;6.28;4.10;;;;;;;;;;4990085;28;20050;-83
2022/08/21 10:31:25;;;;;;;52.38;16.55;;;;;;;;;;5018862;28;20046;-84
2022/08/21 10:34:06;;;;;;;6.60;4.15;;;;;;;;;;5002530;28;20033;-83
2022/08/21 10:36:35;;;;;;;6.72;4.20;;;;;;;;;;5003176;28;20122;-83
2022/08/21 10:39:02;;;;;;;266.35;106.43;;;;;;;;;;5017142;28;20033;-83
2022/08/21 10:41:46;;;;;;;6.18;4.13;;;;;;;;;;5002842;28;20029;-82
2022/08/21 10:44:31;;;;;;;5.60;4.40;;;;;;;;;;5021618;28;20162;-81
2022/08/21 10:47:06;;;;;;;25.45;9.15;;;;;;;;;;5010899;28;20148;-82
2022/08/21 10:49:32;;;;;;;41.38;14.63;;;;;;;;;;5022742;28;20042;-83
2022/08/21 10:52:10;;;;;;;12.95;6.55;;;;;;;;;;5022868;28;20100;-83
2022/08/21 10:54:36;;;;;;;8.77;7.75;;;;;;;;;;5005970;28;20040;-83
2022/08/21 10:57:06;;;;;;;6.28;4.40;;;;;;;;;;5023717;28;20034;-83
2022/08/21 10:59:39;;;;;;;14.65;7.43;;;;;;;;;;5023056;28;20089;-83
2022/08/21 11:02:20;;;;;;;51.92;22.10;;;;;;;;;;5024118;28;20450;-81
2022/08/21 11:04:47;;;;;;;38.67;12.75;;;;;;;;;;5024670;28;20096;-81
2022/08/21 11:07:33;;;;;;;24.33;7.18;;;;;;;;;;5024328;28;20198;-82
2022/08/21 11:10:02;;;;;;;4.20;2.08;;;;;;;;;;5025402;28;20034;-81
2022/08/21 11:12:34;;;;;;;4.57;2.40;;;;;;;;;;5006584;28;20053;-81
2022/08/21 11:15:10;;;;;;;4.63;2.90;;;;;;;;;;5006894;28;20029;-82
2022/08/21 11:17:45;;;;;;;80.00;29.63;;;;;;;;;;5024959;28;20261;-81
2022/08/21 11:20:17;;;;;;;4.10;2.20;;;;;;;;;;5025934;28;20029;-83
2022/08/21 11:22:54;;;;;;;4.40;2.85;;;;;;;;;;5018420;28;20014;-81
2022/08/21 11:25:23;;;;;;;4.40;2.15;;;;;;;;;;4988936;28;20050;-84
2022/08/21 11:27:59;;;;;;;4.18;2.30;;;;;;;;;;5023119;28;20053;-81
2022/08/21 11:30:28;;;;;;;3.97;1.98;;;;;;;;;;5003865;28;20065;-83
2022/08/21 11:33:13;;;;;;;3.90;1.92;;;;;;;;;;5027114;28;20052;-82
2022/08/21 11:35:44;;;;;;;5.03;2.20;;;;;;;;;;5024431;28;20053;-83
2022/08/21 11:38:17;;;;;;;4.50;2.30;;;;;;;;;;4993813;28;20038;-84
2022/08/21 11:40:47;;;;;;;3.67;1.90;;;;;;;;;;5007114;28;20324;-81
2022/08/21 11:43:18;;;;;;;8.55;4.15;;;;;;;;;;5020585;28;20086;-81
2022/08/21 11:45:47;;;;;;;3.67;1.80;;;;;;;;;;5015424;28;20101;-81
2022/08/21 11:48:26;;;;;;;3.85;2.10;;;;;;;;;;5021998;28;20048;-81
2022/08/21 11:50:52;;;;;;;4.50;3.47;;;;;;;;;;5024104;28;20054;-81
2022/08/21 11:53:31;;;;;;;3.80;1.83;;;;;;;;;;4998417;28;20026;-82
2022/08/21 11:56:02;;;;;;;3.13;1.50;;;;;;;;;;5008526;28;20029;-83
2022/08/21 11:58:40;;;;;;;3.70;1.95;;;;;;;;;;5032687;28;20057;-82
2022/08/21 12:01:11;;;;;;;13.65;4.05;;;;;;;;;;5023988;28;20089;-81
2022/08/21 12:03:40;;;;;;;3.70;2.03;;;;;;;;;;5022524;28;20041;-83
2022/08/21 12:06:09;;;;;;;4.15;2.00;;;;;;;;;;5025303;28;20018;-82
2022/08/21 12:08:36;;;;;;;3.72;2.10;;;;;;;;;;5026622;28;20030;-83
2022/08/21 12:11:07;;;;;;;3.50;1.75;;;;;;;;;;5008775;28;20030;-84
2022/08/21 12:13:35;;;;;;;3.72;1.90;;;;;;;;;;5027265;28;20026;-84
2022/08/21 12:16:07;;;;;;;3.90;1.90;;;;;;;;;;5007670;28;20508;-81
2022/08/21 12:18:34;;;;;;;4.18;2.00;;;;;;;;;;5026849;28;20036;-82
2022/08/21 12:21:05;;;;;;;4.15;2.00;;;;;;;;;;5025056;28;20026;-81
2022/08/21 12:23:33;;;;;;;4.13;1.80;;;;;;;;;;5027400;28;20034;-82
2022/08/21 12:26:00;;;;;;;3.95;2.08;;;;;;;;;;5010559;28;20122;-82
2022/08/21 12:28:27;;;;;;;3.95;1.85;;;;;;;;;;5029503;28;20052;-80
2022/08/21 12:30:54;;;;;;;3.80;2.00;;;;;;;;;;5011024;28;20030;-84
2022/08/21 12:33:30;;;;;;;3.50;1.80;;;;;;;;;;5026091;28;20555;-82
2022/08/21 12:36:13;;;;;;;3.35;1.83;;;;;;;;;;5011021;28;20026;-82
2022/08/21 12:38:51;;;;;;;4.25;2.33;;;;;;;;;;5010750;28;20075;-83
2022/08/21 12:41:19;;;;;;;24.52;15.48;;;;;;;;;;5028502;28;20041;-81
2022/08/21 12:43:53;;;;;;;4.13;2.10;;;;;;;;;;5010525;28;20109;-84
2022/08/21 12:46:21;;;;;;;5.07;2.33;;;;;;;;;;5007293;28;20072;-81
2022/08/21 12:48:51;;;;;;;19.00;10.05;;;;;;;;;;5005646;28;20041;-83
2022/08/21 12:51:29;;;;;;;4.13;2.20;;;;;;;;;;5031710;28;20030;-84
2022/08/21 12:53:57;;;;;;;52.83;24.55;;;;;;;;;;5032452;28;20057;-82
2022/08/21 12:56:26;;;;;;;4.00;2.05;;;;;;;;;;5028541;28;20018;-84
2022/08/21 12:58:56;;;;;;;4.53;2.22;;;;;;;;;;5029326;28;20082;-84
2022/08/21 13:01:43;;;;;;;3.92;2.05;;;;;;;;;;5010164;28;20041;-83
2022/08/21 13:04:17;;;;;;;5.25;2.95;;;;;;;;;;4994682;28;20065;-82
2022/08/21 13:06:45;;;;;;;3.95;2.15;;;;;;;;;;5017349;28;20399;-84
2022/08/21 13:09:13;;;;;;;3.95;2.00;;;;;;;;;;5028530;28;20060;-83
2022/08/21 13:11:44;;;;;;;25.30;12.15;;;;;;;;;;5011775;28;20030;-83
2022/08/21 13:14:29;;;;;;;47.05;14.73;;;;;;;;;;5010936;28;20026;-83
2022/08/21 13:16:56;;;;;;;4.20;1.95;;;;;;;;;;5010435;28;20030;-84
2022/08/21 13:19:23;;;;;;;4.03;1.92;;;;;;;;;;5011646;28;20064;-82
2022/08/21 13:21:49;;;;;;;4.18;2.10;;;;;;;;;;5012194;28;20018;-82
2022/08/21 13:24:20;;;;;;;4.68;2.28;;;;;;;;;;5028814;28;20030;-83
2022/08/21 13:26:47;;;;;;;3.63;2.03;;;;;;;;;;5027469;28;20034;-83
2022/08/21 13:29:15;;;;;;;4.70;2.13;;;;;;;;;;5028247;28;20061;-84
2022/08/21 13:31:42;;;;;;;10.13;4.70;;;;;;;;;;5028035;28;20030;-83
2022/08/21 13:34:10;;;;;;;4.00;2.05;;;;;;;;;;5028226;28;20037;-80
2022/08/21 13:36:37;;;;;;;4.00;2.10;;;;;;;;;;5026921;28;20037;-83
2022/08/21 13:39:04;;;;;;;4.70;2.60;;;;;;;;;;5008344;28;20033;-83
2022/08/21 13:41:35;;;;;;;4.85;2.45;;;;;;;;;;4999550;28;20069;-82
2022/08/21 13:44:03;;;;;;;4.68;2.38;;;;;;;;;;5000016;28;20032;-83
2022/08/21 13:46:31;;;;;;;5.85;2.33;;;;;;;;;;4993398;28;20027;-82
2022/08/21 13:48:58;;;;;;;3.92;2.03;;;;;;;;;;4994332;28;20033;-82
2022/08/21 13:51:25;;;;;;;4.20;2.53;;;;;;;;;;5017440;28;20022;-81
2022/08/21 13:53:52;;;;;;;6.30;4.82;;;;;;;;;;5017131;28;20022;-80
2022/08/21 13:56:27;;;;;;;4.90;2.72;;;;;;;;;;5017324;28;20021;-83
2022/08/21 13:58:54;;;;;;;44.95;9.52;;;;;;;;;;4999980;28;20242;-82
2022/08/21 14:01:22;;;;;;;7.30;2.90;;;;;;;;;;4998831;28;20014;-83
2022/08/21 14:03:50;;;;;;;4.68;2.70;;;;;;;;;;5015038;28;20030;-81
2022/08/21 14:06:21;;;;;;;5.43;2.40;;;;;;;;;;5016355;28;20028;-82